sensor_id;sensor_type;location;lat;lon;timestamp;P1;durP1;ratioP1;P2;durP2;ratioP2
4011;SDS011;2020;48.682;9.024;2023-10-19T00:01:06;5.17;;;4.87;;
4011;SDS011;2020;48.682;9.024;2023-10-19T00:03:33;4.97;;;4.67;;
4011;SDS011;2020;48.682;9.024;2023-10-19T00:05:59;4.30;;;4.10;;
4011;SDS011;2020;48.682;9.024;2023-10-19T00:08:24;4.50;;;3.47;;
4011;SDS011;2020;48.682;9.024;2023-10-19T00:10:50;3.60;;;3.40;;
4011;SDS011;2020;48.682;9.024;2023-10-19T00:13:33;3.37;;;3.27;;
4011;SDS011;2020;48.682;9.024;2023-10-19T00:16:08;4.07;;;3.73;;
4011;SDS011;2020;48.682;9.024;2023-10-19T00:18:41;4.77;;;4.40;;
4011;SDS011;2020;48.682;9.024;2023-10-19T00:21:09;3.83;;;3.53;;
4011;SDS011;2020;48.682;9.024;2023-10-19T00:23:51;4.43;;;3.97;;
4011;SDS011;2020;48.682;9.024;2023-10-19T00:26:21;3.47;;;3.27;;
4011;SDS011;2020;48.682;9.024;2023-10-19T00:28:50;3.43;;;3.23;;
4011;SDS011;2020;48.682;9.024;2023-10-19T00:31:20;3.97;;;3.77;;
4011;SDS011;2020;48.682;9.024;2023-10-19T00:33:46;4.27;;;4.07;;
4011;SDS011;2020;48.682;9.024;2023-10-19T00:36:12;4.13;;;3.73;;
4011;SDS011;2020;48.682;9.024;2023-10-19T00:38:40;4.27;;;3.93;;
4011;SDS011;2020;48.682;9.024;2023-10-19T00:41:25;3.97;;;3.53;;
4011;SDS011;2020;48.682;9.024;2023-10-19T00:43:57;3.50;;;3.10;;
4011;SDS011;2020;48.682;9.024;2023-10-19T00:46:28;3.73;;;3.53;;
4011;SDS011;2020;48.682;9.024;2023-10-19T00:49:04;4.20;;;3.80;;
4011;SDS011;2020;48.682;9.024;2023-10-19T00:51:37;3.50;;;3.40;;
4011;SDS011;2020;48.682;9.024;2023-10-19T00:54:29;3.43;;;3.23;;
4011;SDS011;2020;48.682;9.024;2023-10-19T00:57:00;3.60;;;3.30;;
4011;SDS011;2020;48.682;9.024;2023-10-19T00:59:37;3.23;;;3.03;;
4011;SDS011;2020;48.682;9.024;2023-10-19T01:02:19;2.67;;;2.57;;
4011;SDS011;2020;48.682;9.024;2023-10-19T01:04:49;3.40;;;3.20;;
4011;SDS011;2020;48.682;9.024;2023-10-19T01:07:21;2.97;;;2.80;;
4011;SDS011;2020;48.682;9.024;2023-10-19T01:09:47;4.30;;;2.40;;
4011;SDS011;2020;48.682;9.024;2023-10-19T01:12:17;3.20;;;2.90;;
4011;SDS011;2020;48.682;9.024;2023-10-19T01:15:15;7.53;;;4.13;;
4011;SDS011;2020;48.682;9.024;2023-10-19T01:17:53;3.20;;;2.90;;
4011;SDS011;2020;48.682;9.024;2023-10-19T01:20:27;3.20;;;3.00;;
4011;SDS011;2020;48.682;9.024;2023-10-19T01:22:54;2.60;;;2.30;;
4011;SDS011;2020;48.682;9.024;2023-10-19T01:25:33;2.53;;;2.20;;
4011;SDS011;2020;48.682;9.024;2023-10-19T01:33:55;2.73;;;2.53;;
4011;SDS011;2020;48.682;9.024;2023-10-19T01:36:24;3.87;;;2.90;;
4011;SDS011;2020;48.682;9.024;2023-10-19T01:38:50;3.03;;;2.73;;
4011;SDS011;2020;48.682;9.024;2023-10-19T01:41:19;6.07;;;2.40;;
4011;SDS011;2020;48.682;9.024;2023-10-19T01:43:46;5.00;;;3.43;;
4011;SDS011;2020;48.682;9.024;2023-10-19T01:46:13;3.27;;;3.00;;
4011;SDS011;2020;48.682;9.024;2023-10-19T01:48:47;4.60;;;3.60;;
4011;SDS011;2020;48.682;9.024;2023-10-19T01:51:14;3.03;;;2.87;;
4011;SDS011;2020;48.682;9.024;2023-10-19T01:53:40;3.80;;;3.50;;
4011;SDS011;2020;48.682;9.024;2023-10-19T01:56:09;3.80;;;3.23;;
4011;SDS011;2020;48.682;9.024;2023-10-19T01:58:38;3.67;;;3.13;;
4011;SDS011;2020;48.682;9.024;2023-10-19T02:01:08;3.37;;;3.17;;
4011;SDS011;2020;48.682;9.024;2023-10-19T02:03:37;2.70;;;2.50;;
4011;SDS011;2020;48.682;9.024;2023-10-19T02:06:06;3.33;;;2.90;;
4011;SDS011;2020;48.682;9.024;2023-10-19T02:08:44;3.00;;;2.90;;
4011;SDS011;2020;48.682;9.024;2023-10-19T02:11:21;3.30;;;3.10;;
4011;SDS011;2020;48.682;9.024;2023-10-19T02:13:48;3.53;;;3.33;;
4011;SDS011;2020;48.682;9.024;2023-10-19T02:16:18;3.70;;;3.40;;
4011;SDS011;2020;48.682;9.024;2023-10-19T02:18:47;2.37;;;2.27;;
4011;SDS011;2020;48.682;9.024;2023-10-19T02:21:14;2.90;;;2.73;;
4011;SDS011;2020;48.682;9.024;2023-10-19T02:23:40;3.70;;;3.50;;
4011;SDS011;2020;48.682;9.024;2023-10-19T02:26:07;5.50;;;3.20;;
4011;SDS011;2020;48.682;9.024;2023-10-19T02:28:33;3.47;;;3.37;;
4011;SDS011;2020;48.682;9.024;2023-10-19T02:31:02;3.97;;;3.77;;
4011;SDS011;2020;48.682;9.024;2023-10-19T02:33:36;3.57;;;3.23;;
4011;SDS011;2020;48.682;9.024;2023-10-19T02:36:02;3.90;;;3.57;;
4011;SDS011;2020;48.682;9.024;2023-10-19T02:38:28;3.27;;;3.10;;
4011;SDS011;2020;48.682;9.024;2023-10-19T02:40:55;3.40;;;3.10;;
4011;SDS011;2020;48.682;9.024;2023-10-19T02:43:20;3.70;;;3.33;;
4011;SDS011;2020;48.682;9.024;2023-10-19T02:45:48;3.33;;;3.10;;
4011;SDS011;2020;48.682;9.024;2023-10-19T02:48:13;3.00;;;2.80;;
4011;SDS011;2020;48.682;9.024;2023-10-19T02:50:38;2.97;;;2.83;;
4011;SDS011;2020;48.682;9.024;2023-10-19T02:53:04;4.73;;;4.43;;
4011;SDS011;2020;48.682;9.024;2023-10-19T02:55:30;6.73;;;5.30;;
4011;SDS011;2020;48.682;9.024;2023-10-19T02:57:56;3.77;;;3.50;;
4011;SDS011;2020;48.682;9.024;2023-10-19T03:00:24;3.67;;;3.37;;
4011;SDS011;2020;48.682;9.024;2023-10-19T03:02:57;4.20;;;3.93;;
4011;SDS011;2020;48.682;9.024;2023-10-19T03:05:23;3.73;;;3.40;;
4011;SDS011;2020;48.682;9.024;2023-10-19T03:07:50;3.87;;;3.67;;
4011;SDS011;2020;48.682;9.024;2023-10-19T03:10:17;3.70;;;3.40;;
4011;SDS011;2020;48.682;9.024;2023-10-19T03:12:49;3.33;;;3.10;;
4011;SDS011;2020;48.682;9.024;2023-10-19T03:15:15;3.53;;;3.27;;
4011;SDS011;2020;48.682;9.024;2023-10-19T03:17:41;4.27;;;3.87;;
4011;SDS011;2020;48.682;9.024;2023-10-19T03:20:07;4.00;;;3.70;;
4011;SDS011;2020;48.682;9.024;2023-10-19T03:22:35;3.57;;;3.37;;
4011;SDS011;2020;48.682;9.024;2023-10-19T03:25:03;3.30;;;2.90;;
4011;SDS011;2020;48.682;9.024;2023-10-19T03:27:48;3.20;;;3.07;;
4011;SDS011;2020;48.682;9.024;2023-10-19T03:30:13;3.87;;;3.57;;
4011;SDS011;2020;48.682;9.024;2023-10-19T03:32:41;3.43;;;3.33;;
4011;SDS011;2020;48.682;9.024;2023-10-19T03:35:06;3.57;;;3.33;;
4011;SDS011;2020;48.682;9.024;2023-10-19T03:37:31;4.07;;;3.80;;
4011;SDS011;2020;48.682;9.024;2023-10-19T03:40:00;2.93;;;2.63;;
4011;SDS011;2020;48.682;9.024;2023-10-19T03:42:30;3.60;;;3.40;;
4011;SDS011;2020;48.682;9.024;2023-10-19T03:44:59;3.80;;;3.33;;
4011;SDS011;2020;48.682;9.024;2023-10-19T03:47:27;3.33;;;3.20;;
4011;SDS011;2020;48.682;9.024;2023-10-19T03:50:00;3.00;;;2.80;;
4011;SDS011;2020;48.682;9.024;2023-10-19T03:52:32;4.40;;;3.03;;
4011;SDS011;2020;48.682;9.024;2023-10-19T03:55:02;4.00;;;3.77;;
4011;SDS011;2020;48.682;9.024;2023-10-19T03:57:30;4.07;;;3.50;;
4011;SDS011;2020;48.682;9.024;2023-10-19T03:59:56;4.10;;;3.80;;
4011;SDS011;2020;48.682;9.024;2023-10-19T04:02:22;3.37;;;3.17;;
4011;SDS011;2020;48.682;9.024;2023-10-19T04:04:53;3.60;;;3.40;;
4011;SDS011;2020;48.682;9.024;2023-10-19T04:07:20;4.53;;;3.43;;
4011;SDS011;2020;48.682;9.024;2023-10-19T04:09:46;3.10;;;2.90;;
4011;SDS011;2020;48.682;9.024;2023-10-19T04:12:34;3.30;;;3.10;;
4011;SDS011;2020;48.682;9.024;2023-10-19T04:15:03;4.27;;;3.10;;
4011;SDS011;2020;48.682;9.024;2023-10-19T04:17:41;4.30;;;4.00;;
4011;SDS011;2020;48.682;9.024;2023-10-19T04:20:08;3.30;;;3.10;;
4011;SDS011;2020;48.682;9.024;2023-10-19T04:22:46;3.10;;;2.90;;
4011;SDS011;2020;48.682;9.024;2023-10-19T04:25:14;3.00;;;2.80;;
4011;SDS011;2020;48.682;9.024;2023-10-19T04:27:41;2.90;;;2.80;;
4011;SDS011;2020;48.682;9.024;2023-10-19T04:30:10;3.47;;;3.27;;
4011;SDS011;2020;48.682;9.024;2023-10-19T04:32:49;3.20;;;3.00;;
4011;SDS011;2020;48.682;9.024;2023-10-19T04:35:16;3.73;;;3.50;;
4011;SDS011;2020;48.682;9.024;2023-10-19T04:37:53;2.87;;;2.70;;
4011;SDS011;2020;48.682;9.024;2023-10-19T04:40:19;3.33;;;3.13;;
4011;SDS011;2020;48.682;9.024;2023-10-19T04:42:46;3.80;;;3.27;;
4011;SDS011;2020;48.682;9.024;2023-10-19T04:45:12;2.93;;;2.73;;
4011;SDS011;2020;48.682;9.024;2023-10-19T04:47:38;3.67;;;3.33;;
4011;SDS011;2020;48.682;9.024;2023-10-19T04:50:04;3.23;;;3.13;;
4011;SDS011;2020;48.682;9.024;2023-10-19T04:52:30;3.27;;;3.17;;
4011;SDS011;2020;48.682;9.024;2023-10-19T04:54:57;3.30;;;3.10;;
4011;SDS011;2020;48.682;9.024;2023-10-19T04:57:22;3.47;;;3.23;;
4011;SDS011;2020;48.682;9.024;2023-10-19T04:59:47;2.80;;;2.60;;
4011;SDS011;2020;48.682;9.024;2023-10-19T05:02:13;3.53;;;3.33;;
4011;SDS011;2020;48.682;9.024;2023-10-19T05:04:38;3.03;;;2.80;;
4011;SDS011;2020;48.682;9.024;2023-10-19T05:07:05;4.70;;;4.13;;
4011;SDS011;2020;48.682;9.024;2023-10-19T05:09:31;3.37;;;3.17;;
4011;SDS011;2020;48.682;9.024;2023-10-19T05:11:57;3.93;;;3.30;;
4011;SDS011;2020;48.682;9.024;2023-10-19T05:14:22;2.90;;;2.80;;
4011;SDS011;2020;48.682;9.024;2023-10-19T05:16:48;5.77;;;2.50;;
4011;SDS011;2020;48.682;9.024;2023-10-19T05:19:14;3.17;;;2.97;;
4011;SDS011;2020;48.682;9.024;2023-10-19T05:21:39;2.90;;;2.70;;
4011;SDS011;2020;48.682;9.024;2023-10-19T05:24:05;3.40;;;3.30;;
4011;SDS011;2020;48.682;9.024;2023-10-19T05:26:33;2.80;;;2.70;;
4011;SDS011;2020;48.682;9.024;2023-10-19T05:28:58;3.97;;;3.60;;
4011;SDS011;2020;48.682;9.024;2023-10-19T05:31:23;16.53;;;5.93;;
4011;SDS011;2020;48.682;9.024;2023-10-19T05:33:49;4.63;;;2.97;;
4011;SDS011;2020;48.682;9.024;2023-10-19T05:36:14;3.50;;;3.20;;
4011;SDS011;2020;48.682;9.024;2023-10-19T05:38:40;3.20;;;3.00;;
4011;SDS011;2020;48.682;9.024;2023-10-19T05:41:05;4.63;;;3.13;;
4011;SDS011;2020;48.682;9.024;2023-10-19T05:43:31;4.00;;;3.70;;
4011;SDS011;2020;48.682;9.024;2023-10-19T05:45:56;4.60;;;4.20;;
4011;SDS011;2020;48.682;9.024;2023-10-19T05:48:21;4.47;;;4.00;;
4011;SDS011;2020;48.682;9.024;2023-10-19T05:50:49;3.80;;;3.47;;
4011;SDS011;2020;48.682;9.024;2023-10-19T05:53:14;3.37;;;3.17;;
4011;SDS011;2020;48.682;9.024;2023-10-19T05:55:43;3.70;;;3.53;;
4011;SDS011;2020;48.682;9.024;2023-10-19T05:58:11;2.83;;;2.73;;
4011;SDS011;2020;48.682;9.024;2023-10-19T06:00:36;3.37;;;3.07;;
4011;SDS011;2020;48.682;9.024;2023-10-19T06:03:02;5.30;;;3.87;;
4011;SDS011;2020;48.682;9.024;2023-10-19T06:05:29;3.07;;;2.87;;
4011;SDS011;2020;48.682;9.024;2023-10-19T06:07:55;3.03;;;2.93;;
4011;SDS011;2020;48.682;9.024;2023-10-19T06:10:21;3.27;;;3.07;;
4011;SDS011;2020;48.682;9.024;2023-10-19T06:12:50;3.30;;;3.00;;
4011;SDS011;2020;48.682;9.024;2023-10-19T06:15:17;2.93;;;2.70;;
4011;SDS011;2020;48.682;9.024;2023-10-19T06:17:45;3.40;;;3.30;;
4011;SDS011;2020;48.682;9.024;2023-10-19T06:20:12;2.90;;;2.80;;
4011;SDS011;2020;48.682;9.024;2023-10-19T06:22:54;3.43;;;2.90;;
4011;SDS011;2020;48.682;9.024;2023-10-19T06:25:29;3.30;;;3.17;;
4011;SDS011;2020;48.682;9.024;2023-10-19T06:27:55;3.83;;;3.43;;
4011;SDS011;2020;48.682;9.024;2023-10-19T06:30:22;3.63;;;3.43;;
4011;SDS011;2020;48.682;9.024;2023-10-19T06:32:49;2.83;;;2.73;;
4011;SDS011;2020;48.682;9.024;2023-10-19T06:35:17;6.67;;;2.97;;
4011;SDS011;2020;48.682;9.024;2023-10-19T06:37:43;3.13;;;3.03;;
4011;SDS011;2020;48.682;9.024;2023-10-19T06:40:09;4.33;;;3.73;;
4011;SDS011;2020;48.682;9.024;2023-10-19T06:42:37;4.00;;;3.80;;
4011;SDS011;2020;48.682;9.024;2023-10-19T06:45:02;4.33;;;3.77;;
4011;SDS011;2020;48.682;9.024;2023-10-19T06:47:28;3.83;;;3.60;;
4011;SDS011;2020;48.682;9.024;2023-10-19T06:49:54;3.27;;;3.07;;
4011;SDS011;2020;48.682;9.024;2023-10-19T06:52:19;3.50;;;3.30;;
4011;SDS011;2020;48.682;9.024;2023-10-19T06:54:44;3.73;;;3.50;;
4011;SDS011;2020;48.682;9.024;2023-10-19T06:57:09;2.53;;;2.40;;
4011;SDS011;2020;48.682;9.024;2023-10-19T06:59:35;3.53;;;3.33;;
4011;SDS011;2020;48.682;9.024;2023-10-19T07:02:01;4.17;;;3.97;;
4011;SDS011;2020;48.682;9.024;2023-10-19T07:04:28;4.87;;;4.47;;
4011;SDS011;2020;48.682;9.024;2023-10-19T07:06:54;3.60;;;3.40;;
4011;SDS011;2020;48.682;9.024;2023-10-19T07:09:19;4.53;;;4.23;;
4011;SDS011;2020;48.682;9.024;2023-10-19T07:11:46;3.97;;;3.77;;
4011;SDS011;2020;48.682;9.024;2023-10-19T07:14:11;3.20;;;3.00;;
4011;SDS011;2020;48.682;9.024;2023-10-19T07:16:38;5.10;;;4.27;;
4011;SDS011;2020;48.682;9.024;2023-10-19T07:19:04;4.50;;;4.20;;
4011;SDS011;2020;48.682;9.024;2023-10-19T07:21:30;4.90;;;4.50;;
4011;SDS011;2020;48.682;9.024;2023-10-19T07:24:00;6.93;;;4.03;;
4011;SDS011;2020;48.682;9.024;2023-10-19T07:26:30;3.70;;;3.53;;
4011;SDS011;2020;48.682;9.024;2023-10-19T07:28:56;2.80;;;2.70;;
4011;SDS011;2020;48.682;9.024;2023-10-19T07:31:21;3.00;;;2.90;;
4011;SDS011;2020;48.682;9.024;2023-10-19T07:33:47;3.03;;;2.93;;
4011;SDS011;2020;48.682;9.024;2023-10-19T07:36:15;3.30;;;2.80;;
4011;SDS011;2020;48.682;9.024;2023-10-19T07:38:40;3.57;;;3.30;;
4011;SDS011;2020;48.682;9.024;2023-10-19T07:41:07;3.70;;;3.50;;
4011;SDS011;2020;48.682;9.024;2023-10-19T07:43:34;3.33;;;3.10;;
4011;SDS011;2020;48.682;9.024;2023-10-19T07:45:59;4.17;;;3.87;;
4011;SDS011;2020;48.682;9.024;2023-10-19T07:48:25;16.13;;;5.20;;
4011;SDS011;2020;48.682;9.024;2023-10-19T07:50:51;7.30;;;3.53;;
4011;SDS011;2020;48.682;9.024;2023-10-19T07:53:18;5.53;;;3.73;;
4011;SDS011;2020;48.682;9.024;2023-10-19T07:55:43;3.90;;;3.60;;
4011;SDS011;2020;48.682;9.024;2023-10-19T07:58:09;3.40;;;3.10;;
4011;SDS011;2020;48.682;9.024;2023-10-19T08:00:35;4.10;;;3.70;;
4011;SDS011;2020;48.682;9.024;2023-10-19T08:03:04;3.07;;;2.87;;
4011;SDS011;2020;48.682;9.024;2023-10-19T08:05:30;3.73;;;3.10;;
4011;SDS011;2020;48.682;9.024;2023-10-19T08:07:57;3.13;;;3.03;;
4011;SDS011;2020;48.682;9.024;2023-10-19T08:10:23;2.77;;;2.57;;
4011;SDS011;2020;48.682;9.024;2023-10-19T08:12:50;3.00;;;2.90;;
4011;SDS011;2020;48.682;9.024;2023-10-19T08:15:17;3.43;;;3.23;;
4011;SDS011;2020;48.682;9.024;2023-10-19T08:17:43;3.00;;;2.80;;
4011;SDS011;2020;48.682;9.024;2023-10-19T08:20:15;3.00;;;2.90;;
4011;SDS011;2020;48.682;9.024;2023-10-19T08:22:50;4.80;;;2.80;;
4011;SDS011;2020;48.682;9.024;2023-10-19T08:25:16;2.90;;;2.77;;
4011;SDS011;2020;48.682;9.024;2023-10-19T08:27:42;3.23;;;2.93;;
4011;SDS011;2020;48.682;9.024;2023-10-19T08:30:10;2.93;;;2.30;;
4011;SDS011;2020;48.682;9.024;2023-10-19T08:32:42;2.47;;;2.37;;
4011;SDS011;2020;48.682;9.024;2023-10-19T08:35:07;2.83;;;2.60;;
4011;SDS011;2020;48.682;9.024;2023-10-19T08:37:36;3.00;;;2.80;;
4011;SDS011;2020;48.682;9.024;2023-10-19T08:40:02;1.90;;;1.87;;
4011;SDS011;2020;48.682;9.024;2023-10-19T08:42:29;2.93;;;2.83;;
4011;SDS011;2020;48.682;9.024;2023-10-19T08:44:55;2.77;;;2.60;;
4011;SDS011;2020;48.682;9.024;2023-10-19T08:47:21;3.07;;;2.87;;
4011;SDS011;2020;48.682;9.024;2023-10-19T08:49:50;2.50;;;2.40;;
4011;SDS011;2020;48.682;9.024;2023-10-19T08:52:16;3.30;;;3.10;;
4011;SDS011;2020;48.682;9.024;2023-10-19T08:54:43;3.53;;;3.30;;
4011;SDS011;2020;48.682;9.024;2023-10-19T08:57:08;2.97;;;2.77;;
4011;SDS011;2020;48.682;9.024;2023-10-19T08:59:35;2.83;;;2.73;;
4011;SDS011;2020;48.682;9.024;2023-10-19T09:02:01;7.10;;;3.87;;
4011;SDS011;2020;48.682;9.024;2023-10-19T09:04:27;3.27;;;2.50;;
4011;SDS011;2020;48.682;9.024;2023-10-19T09:06:53;3.53;;;2.90;;
4011;SDS011;2020;48.682;9.024;2023-10-19T09:09:20;3.07;;;2.90;;
4011;SDS011;2020;48.682;9.024;2023-10-19T09:11:46;2.63;;;2.53;;
4011;SDS011;2020;48.682;9.024;2023-10-19T09:14:13;3.60;;;2.47;;
4011;SDS011;2020;48.682;9.024;2023-10-19T09:16:53;2.90;;;2.70;;
4011;SDS011;2020;48.682;9.024;2023-10-19T09:22:06;2.53;;;2.43;;
4011;SDS011;2020;48.682;9.024;2023-10-19T09:24:33;2.40;;;2.30;;
4011;SDS011;2020;48.682;9.024;2023-10-19T09:27:01;3.57;;;1.73;;
4011;SDS011;2020;48.682;9.024;2023-10-19T09:29:27;2.73;;;2.17;;
4011;SDS011;2020;48.682;9.024;2023-10-19T09:31:52;1.30;;;1.30;;
4011;SDS011;2020;48.682;9.024;2023-10-19T09:34:22;2.23;;;1.80;;
4011;SDS011;2020;48.682;9.024;2023-10-19T09:36:56;2.20;;;1.83;;
4011;SDS011;2020;48.682;9.024;2023-10-19T09:39:22;1.50;;;1.40;;
4011;SDS011;2020;48.682;9.024;2023-10-19T09:41:49;1.93;;;1.67;;
4011;SDS011;2020;48.682;9.024;2023-10-19T09:44:17;1.80;;;1.80;;
4011;SDS011;2020;48.682;9.024;2023-10-19T09:46:49;1.23;;;1.23;;
4011;SDS011;2020;48.682;9.024;2023-10-19T09:49:18;1.80;;;1.80;;
4011;SDS011;2020;48.682;9.024;2023-10-19T09:51:44;3.67;;;2.03;;
4011;SDS011;2020;48.682;9.024;2023-10-19T09:54:17;1.87;;;1.77;;
4011;SDS011;2020;48.682;9.024;2023-10-19T09:56:54;3.23;;;2.60;;
4011;SDS011;2020;48.682;9.024;2023-10-19T09:59:29;2.17;;;2.07;;
4011;SDS011;2020;48.682;9.024;2023-10-19T10:02:05;3.20;;;2.10;;
4011;SDS011;2020;48.682;9.024;2023-10-19T10:04:37;1.90;;;1.80;;
4011;SDS011;2020;48.682;9.024;2023-10-19T10:07:04;2.30;;;2.20;;
4011;SDS011;2020;48.682;9.024;2023-10-19T10:09:32;3.40;;;2.57;;
4011;SDS011;2020;48.682;9.024;2023-10-19T10:15:02;3.37;;;1.97;;
4011;SDS011;2020;48.682;9.024;2023-10-19T10:17:35;2.93;;;2.73;;
4011;SDS011;2020;48.682;9.024;2023-10-19T10:22:40;3.33;;;2.10;;
4011;SDS011;2020;48.682;9.024;2023-10-19T10:25:06;2.17;;;2.07;;
4011;SDS011;2020;48.682;9.024;2023-10-19T10:27:32;2.90;;;2.07;;
4011;SDS011;2020;48.682;9.024;2023-10-19T10:30:01;1.97;;;1.87;;
4011;SDS011;2020;48.682;9.024;2023-10-19T10:38:01;2.23;;;2.03;;
4011;SDS011;2020;48.682;9.024;2023-10-19T10:40:27;2.10;;;2.00;;
4011;SDS011;2020;48.682;9.024;2023-10-19T10:43:05;2.50;;;1.93;;
4011;SDS011;2020;48.682;9.024;2023-10-19T10:45:31;4.73;;;2.20;;
4011;SDS011;2020;48.682;9.024;2023-10-19T10:47:56;2.43;;;2.33;;
4011;SDS011;2020;48.682;9.024;2023-10-19T10:50:22;2.10;;;2.00;;
4011;SDS011;2020;48.682;9.024;2023-10-19T10:52:49;2.93;;;2.70;;
4011;SDS011;2020;48.682;9.024;2023-10-19T10:55:15;2.77;;;2.67;;
4011;SDS011;2020;48.682;9.024;2023-10-19T10:57:41;2.80;;;2.60;;
4011;SDS011;2020;48.682;9.024;2023-10-19T11:00:09;2.60;;;2.40;;
4011;SDS011;2020;48.682;9.024;2023-10-19T11:02:40;2.70;;;2.50;;
4011;SDS011;2020;48.682;9.024;2023-10-19T11:05:09;2.20;;;2.10;;
4011;SDS011;2020;48.682;9.024;2023-10-19T11:07:37;2.63;;;2.53;;
4011;SDS011;2020;48.682;9.024;2023-10-19T11:10:02;2.70;;;2.10;;
4011;SDS011;2020;48.682;9.024;2023-10-19T11:12:28;2.50;;;2.30;;
4011;SDS011;2020;48.682;9.024;2023-10-19T11:14:54;5.27;;;3.23;;
4011;SDS011;2020;48.682;9.024;2023-10-19T11:17:41;2.37;;;2.27;;
4011;SDS011;2020;48.682;9.024;2023-10-19T11:20:07;3.10;;;2.13;;
4011;SDS011;2020;48.682;9.024;2023-10-19T11:22:39;3.13;;;2.77;;
4011;SDS011;2020;48.682;9.024;2023-10-19T11:25:20;4.20;;;2.47;;
4011;SDS011;2020;48.682;9.024;2023-10-19T11:27:46;2.30;;;2.20;;
4011;SDS011;2020;48.682;9.024;2023-10-19T11:30:12;2.43;;;2.23;;
4011;SDS011;2020;48.682;9.024;2023-10-19T11:32:38;2.83;;;2.73;;
4011;SDS011;2020;48.682;9.024;2023-10-19T11:35:04;3.47;;;1.97;;
4011;SDS011;2020;48.682;9.024;2023-10-19T11:37:44;2.10;;;2.00;;
4011;SDS011;2020;48.682;9.024;2023-10-19T11:40:10;2.20;;;2.10;;
4011;SDS011;2020;48.682;9.024;2023-10-19T11:42:36;2.17;;;2.07;;
4011;SDS011;2020;48.682;9.024;2023-10-19T11:45:01;2.10;;;2.00;;
4011;SDS011;2020;48.682;9.024;2023-10-19T11:47:27;2.20;;;2.10;;
4011;SDS011;2020;48.682;9.024;2023-10-19T11:49:52;2.57;;;2.47;;
4011;SDS011;2020;48.682;9.024;2023-10-19T11:52:19;4.73;;;1.87;;
4011;SDS011;2020;48.682;9.024;2023-10-19T11:54:44;3.13;;;2.20;;
4011;SDS011;2020;48.682;9.024;2023-10-19T11:57:09;2.63;;;2.23;;
4011;SDS011;2020;48.682;9.024;2023-10-19T11:59:34;2.30;;;2.20;;
4011;SDS011;2020;48.682;9.024;2023-10-19T12:02:00;2.53;;;2.37;;
4011;SDS011;2020;48.682;9.024;2023-10-19T12:04:28;3.00;;;2.37;;
4011;SDS011;2020;48.682;9.024;2023-10-19T12:06:54;2.00;;;1.90;;
4011;SDS011;2020;48.682;9.024;2023-10-19T12:09:20;1.87;;;1.77;;
4011;SDS011;2020;48.682;9.024;2023-10-19T12:11:49;1.87;;;1.77;;
4011;SDS011;2020;48.682;9.024;2023-10-19T12:14:18;1.87;;;1.77;;
4011;SDS011;2020;48.682;9.024;2023-10-19T12:16:43;2.30;;;2.20;;
4011;SDS011;2020;48.682;9.024;2023-10-19T12:19:10;2.00;;;2.00;;
4011;SDS011;2020;48.682;9.024;2023-10-19T12:21:35;2.40;;;2.30;;
4011;SDS011;2020;48.682;9.024;2023-10-19T12:24:02;3.67;;;3.57;;
4011;SDS011;2020;48.682;9.024;2023-10-19T12:26:29;3.33;;;3.13;;
4011;SDS011;2020;48.682;9.024;2023-10-19T12:28:55;2.70;;;2.50;;
4011;SDS011;2020;48.682;9.024;2023-10-19T12:31:20;2.97;;;2.77;;
4011;SDS011;2020;48.682;9.024;2023-10-19T12:33:48;3.87;;;3.53;;
4011;SDS011;2020;48.682;9.024;2023-10-19T12:36:13;3.60;;;3.40;;
4011;SDS011;2020;48.682;9.024;2023-10-19T12:38:47;2.93;;;2.73;;
4011;SDS011;2020;48.682;9.024;2023-10-19T12:41:13;2.60;;;2.50;;
4011;SDS011;2020;48.682;9.024;2023-10-19T12:43:39;2.40;;;2.30;;
4011;SDS011;2020;48.682;9.024;2023-10-19T12:46:04;9.07;;;3.27;;
4011;SDS011;2020;48.682;9.024;2023-10-19T12:48:33;2.77;;;2.40;;
4011;SDS011;2020;48.682;9.024;2023-10-19T12:50:59;3.03;;;2.90;;
4011;SDS011;2020;48.682;9.024;2023-10-19T12:53:26;2.43;;;2.20;;
4011;SDS011;2020;48.682;9.024;2023-10-19T12:55:52;3.53;;;2.13;;
4011;SDS011;2020;48.682;9.024;2023-10-19T12:58:17;2.43;;;2.33;;
4011;SDS011;2020;48.682;9.024;2023-10-19T13:00:44;3.40;;;3.20;;
4011;SDS011;2020;48.682;9.024;2023-10-19T13:03:10;3.13;;;2.60;;
4011;SDS011;2020;48.682;9.024;2023-10-19T13:05:41;2.33;;;2.13;;
4011;SDS011;2020;48.682;9.024;2023-10-19T13:08:08;2.07;;;1.97;;
4011;SDS011;2020;48.682;9.024;2023-10-19T13:10:34;2.97;;;2.77;;
4011;SDS011;2020;48.682;9.024;2023-10-19T13:13:02;2.50;;;2.30;;
4011;SDS011;2020;48.682;9.024;2023-10-19T13:15:29;3.00;;;2.77;;
4011;SDS011;2020;48.682;9.024;2023-10-19T13:17:56;2.37;;;2.27;;
4011;SDS011;2020;48.682;9.024;2023-10-19T13:20:23;2.03;;;1.93;;
4011;SDS011;2020;48.682;9.024;2023-10-19T13:22:50;2.27;;;2.17;;
4011;SDS011;2020;48.682;9.024;2023-10-19T13:25:16;2.30;;;2.20;;
4011;SDS011;2020;48.682;9.024;2023-10-19T13:27:42;2.23;;;2.13;;
4011;SDS011;2020;48.682;9.024;2023-10-19T13:30:14;1.90;;;1.80;;
4011;SDS011;2020;48.682;9.024;2023-10-19T13:32:39;2.03;;;1.93;;
4011;SDS011;2020;48.682;9.024;2023-10-19T13:35:06;2.70;;;2.60;;
4011;SDS011;2020;48.682;9.024;2023-10-19T13:37:32;2.20;;;2.10;;
4011;SDS011;2020;48.682;9.024;2023-10-19T13:39:57;1.70;;;1.67;;
4011;SDS011;2020;48.682;9.024;2023-10-19T13:42:23;2.20;;;2.10;;
4011;SDS011;2020;48.682;9.024;2023-10-19T13:44:49;2.60;;;2.50;;
4011;SDS011;2020;48.682;9.024;2023-10-19T13:47:14;2.30;;;2.20;;
4011;SDS011;2020;48.682;9.024;2023-10-19T13:49:40;2.03;;;2.00;;
4011;SDS011;2020;48.682;9.024;2023-10-19T13:52:06;1.77;;;1.77;;
4011;SDS011;2020;48.682;9.024;2023-10-19T13:54:33;1.83;;;1.73;;
4011;SDS011;2020;48.682;9.024;2023-10-19T13:56:59;1.60;;;1.60;;
4011;SDS011;2020;48.682;9.024;2023-10-19T13:59:24;1.77;;;1.77;;
4011;SDS011;2020;48.682;9.024;2023-10-19T14:01:50;1.97;;;1.97;;
4011;SDS011;2020;48.682;9.024;2023-10-19T14:04:15;2.70;;;1.87;;
4011;SDS011;2020;48.682;9.024;2023-10-19T14:06:41;2.13;;;2.03;;
4011;SDS011;2020;48.682;9.024;2023-10-19T14:09:07;1.83;;;1.83;;
4011;SDS011;2020;48.682;9.024;2023-10-19T14:11:37;2.50;;;2.40;;
4011;SDS011;2020;48.682;9.024;2023-10-19T14:14:03;1.97;;;1.87;;
4011;SDS011;2020;48.682;9.024;2023-10-19T14:16:28;2.10;;;2.10;;
4011;SDS011;2020;48.682;9.024;2023-10-19T14:18:53;1.70;;;1.70;;
4011;SDS011;2020;48.682;9.024;2023-10-19T14:21:19;1.90;;;1.80;;
4011;SDS011;2020;48.682;9.024;2023-10-19T14:23:45;1.80;;;1.80;;
4011;SDS011;2020;48.682;9.024;2023-10-19T14:26:10;1.87;;;1.77;;
4011;SDS011;2020;48.682;9.024;2023-10-19T14:28:37;2.13;;;2.03;;
4011;SDS011;2020;48.682;9.024;2023-10-19T14:31:03;1.63;;;1.53;;
4011;SDS011;2020;48.682;9.024;2023-10-19T14:33:29;1.77;;;1.70;;
4011;SDS011;2020;48.682;9.024;2023-10-19T14:35:55;1.80;;;1.80;;
4011;SDS011;2020;48.682;9.024;2023-10-19T14:38:21;1.97;;;1.87;;
4011;SDS011;2020;48.682;9.024;2023-10-19T14:40:46;1.50;;;1.50;;
4011;SDS011;2020;48.682;9.024;2023-10-19T14:43:13;1.80;;;1.70;;
4011;SDS011;2020;48.682;9.024;2023-10-19T14:45:40;1.80;;;1.70;;
4011;SDS011;2020;48.682;9.024;2023-10-19T14:48:06;1.40;;;1.40;;
4011;SDS011;2020;48.682;9.024;2023-10-19T14:50:35;2.27;;;2.07;;
4011;SDS011;2020;48.682;9.024;2023-10-19T14:53:00;1.50;;;1.50;;
4011;SDS011;2020;48.682;9.024;2023-10-19T14:55:25;1.60;;;1.50;;
4011;SDS011;2020;48.682;9.024;2023-10-19T14:57:52;1.60;;;1.60;;
4011;SDS011;2020;48.682;9.024;2023-10-19T15:00:19;2.20;;;2.00;;
4011;SDS011;2020;48.682;9.024;2023-10-19T15:02:46;2.47;;;2.30;;
4011;SDS011;2020;48.682;9.024;2023-10-19T15:05:11;2.35;;;2.25;;
4011;SDS011;2020;48.682;9.024;2023-10-19T15:07:39;3.00;;;2.80;;
4011;SDS011;2020;48.682;9.024;2023-10-19T15:10:05;2.70;;;2.60;;
4011;SDS011;2020;48.682;9.024;2023-10-19T15:12:34;3.00;;;2.90;;
4011;SDS011;2020;48.682;9.024;2023-10-19T15:15:00;2.10;;;2.00;;
4011;SDS011;2020;48.682;9.024;2023-10-19T15:17:25;5.80;;;3.53;;
4011;SDS011;2020;48.682;9.024;2023-10-19T15:19:52;3.47;;;3.37;;
4011;SDS011;2020;48.682;9.024;2023-10-19T15:22:18;2.37;;;2.27;;
4011;SDS011;2020;48.682;9.024;2023-10-19T15:24:43;3.40;;;3.20;;
4011;SDS011;2020;48.682;9.024;2023-10-19T15:27:08;6.70;;;3.47;;
4011;SDS011;2020;48.682;9.024;2023-10-19T15:29:34;3.20;;;2.93;;
4011;SDS011;2020;48.682;9.024;2023-10-19T15:31:59;3.10;;;3.00;;
4011;SDS011;2020;48.682;9.024;2023-10-19T15:34:24;3.33;;;3.23;;
4011;SDS011;2020;48.682;9.024;2023-10-19T15:36:50;2.50;;;2.40;;
4011;SDS011;2020;48.682;9.024;2023-10-19T15:39:16;2.63;;;2.53;;